Time;durP1;ratioP1;P1;durP2;ratioP2;P2;SDS_P1;SDS_P2;PMS_P1;PMS_P2;Temp;Humidity;BMP_temperature;BMP_pressure;BME280_temperature;BME280_humidity;BME280_pressure;Samples;Min_cycle;Max_cycle;Signal;HPM_P1;HPM_P2
2022/08/22 00:00:18;;;;;;;;;;;21.10;86.60;21.30;99425.00;;;;331593;29;83266;-95
2022/08/22 00:00:33;;;;;;;;;;;21.20;86.80;21.40;99418.00;;;;327647;29;95332;-95
2022/08/22 00:01:10;;;;;;;;;;;21.20;86.60;21.30;99420.00;;;;327917;29;84901;-94
2022/08/22 00:01:37;;;;;;;;;;;21.20;86.50;21.40;99414.00;;;;330601;29;95543;-95
2022/08/22 00:01:58;;;;;;;;;;;21.20;86.50;21.20;99421.00;;;;331560;29;82539;-94
2022/08/22 00:02:35;;;;;;;;;;;21.20;86.40;21.20;99422.00;;;;331061;29;96256;-94
2022/08/22 00:03:08;;;;;;;;;;;21.20;86.30;21.20;99416.00;;;;332021;29;83607;-95
2022/08/22 00:03:47;;;;;;;;;;;21.20;86.40;21.20;99409.00;;;;331496;29;95936;-95
2022/08/22 00:04:04;;;;;;;;;;;21.10;86.60;21.20;99422.00;;;;332477;29;83551;-95
2022/08/22 00:04:19;;;;;;;;;;;21.20;86.70;21.30;99409.00;;;;332045;29;96205;-95
2022/08/22 00:04:58;;;;;;;;;;;21.10;86.80;21.30;99417.00;;;;331580;29;83513;-95
2022/08/22 00:05:19;;;;;;;;;;;21.10;86.70;21.40;99412.00;;;;331836;29;96820;-95
2022/08/22 00:05:59;;;;;;;;;;;21.10;86.50;21.30;99412.00;;;;332874;29;82707;-95
2022/08/22 00:06:19;;;;;;;;;;;21.20;87.10;21.40;99420.00;;;;331190;29;96892;-95
2022/08/22 00:06:42;;;;;;;;;;;21.20;86.60;21.20;99413.00;;;;332816;29;82611;-95
2022/08/22 00:07:03;;;;;;;;;;;21.20;87.20;21.30;99407.00;;;;330711;29;97617;-95
2022/08/22 00:07:27;;;;;;;;;;;21.20;86.50;21.30;99412.00;;;;331452;29;82463;-95
2022/08/22 00:07:45;;;;;;;;;;;21.20;86.50;21.30;99407.00;;;;331841;29;96683;-94
2022/08/22 00:08:15;;;;;;;;;;;21.20;86.40;21.30;99417.00;;;;332637;29;83701;-95
2022/08/22 00:08:52;;;;;;;;;;;21.20;86.40;21.40;99413.00;;;;330720;29;95859;-95
2022/08/22 00:09:37;;;;;;;;;;;21.20;86.60;21.30;99415.00;;;;330047;29;83812;-96
2022/08/22 00:09:58;;;;;;;;;;;21.20;86.40;21.40;99413.00;;;;330835;29;92949;-95
2022/08/22 00:10:38;;;;;;;;;;;21.20;86.40;21.30;99418.00;;;;331376;29;83297;-95
2022/08/22 00:11:18;;;;;;;;;;;21.20;86.40;21.20;99416.00;;;;330746;29;97507;-95
2022/08/22 00:11:50;;;;;;;;;;;21.30;86.40;21.20;99424.00;;;;332337;29;83307;-94
2022/08/22 00:12:07;;;;;;;;;;;21.20;86.20;21.30;99412.00;;;;328809;29;94933;-94
2022/08/22 00:12:21;;;;;;;;;;;21.20;86.20;21.30;99412.00;;;;327600;29;83461;-95
2022/08/22 00:12:49;;;;;;;;;;;21.20;85.90;21.40;99408.00;;;;326632;29;95953;-96
2022/08/22 00:13:11;;;;;;;;;;;21.20;85.90;21.40;99405.00;;;;328777;29;83317;-95
2022/08/22 00:13:30;;;;;;;;;;;21.20;86.00;21.40;99406.00;;;;330770;29;96169;-94
2022/08/22 00:14:19;;;;;;;;;;;21.30;86.40;21.40;99406.00;;;;330456;29;84400;-95
2022/08/22 00:14:45;;;;;;;;;;;21.20;86.10;21.40;99407.00;;;;329504;29;95507;-94
2022/08/22 00:15:06;;;;;;;;;;;21.30;86.10;21.40;99406.00;;;;331569;29;83465;-95
2022/08/22 00:15:38;;;;;;;;;;;21.30;86.10;21.30;99401.00;;;;329402;29;97307;-95
2022/08/22 00:16:28;;;;;;;;;;;21.30;86.00;21.40;99411.00;;;;330088;29;83465;-95
2022/08/22 00:16:43;;;;;;;;;;;21.30;86.00;21.40;99398.00;;;;327513;29;97202;-95
2022/08/22 00:17:20;;;;;;;;;;;21.30;86.20;21.40;99403.00;;;;328112;29;83511;-95
2022/08/22 00:17:34;;;;;;;;;;;21.30;86.30;21.30;99405.00;;;;330570;29;96430;-95
2022/08/22 00:17:51;;;;;;;;;;;21.30;86.20;21.30;99401.00;;;;332759;29;83469;-95
2022/08/22 00:18:17;;;;;;;;;;;21.20;86.20;21.40;99403.00;;;;335773;28;95532;-95
2022/08/22 00:18:41;;;;;;;;;;;21.30;86.10;21.40;99404.00;;;;335200;29;83658;-95
2022/08/22 00:19:00;;;;;;;;;;;21.30;86.00;21.40;99410.00;;;;335456;28;96885;-95
2022/08/22 00:19:17;;;;;;;;;;;21.30;86.00;21.40;99399.00;;;;333916;29;83367;-95
2022/08/22 00:19:47;;;;;;;;;;;21.30;86.00;21.30;99407.00;;;;333468;29;96501;-95
2022/08/22 00:20:08;;;;;;;;;;;21.30;86.00;21.40;99396.00;;;;335112;29;82597;-95
2022/08/22 00:20:20;;;;;;;;;;;21.30;86.00;21.40;99394.00;;;;333683;29;97895;-95
2022/08/22 00:21:04;;;;;;;;;;;21.30;86.10;21.40;99403.00;;;;333886;29;83361;-95
2022/08/22 00:21:20;;;;;;;;;;;21.30;86.10;21.40;99400.00;;;;331848;29;96250;-95
2022/08/22 00:21:39;;;;;;;;;;;21.30;86.10;21.40;99401.00;;;;334032;29;83408;-95
2022/08/22 00:22:11;;;;;;;;;;;21.30;85.90;21.40;99407.00;;;;330734;29;95414;-95
2022/08/22 00:22:29;;;;;;;;;;;21.30;86.00;21.40;99409.00;;;;332789;29;82504;-95
2022/08/22 00:22:48;;;;;;;;;;;21.30;86.20;21.50;99401.00;;;;333524;29;93027;-95
2022/08/22 00:23:38;;;;;;;;;;;21.30;86.00;21.40;99403.00;;;;333621;29;83494;-95
2022/08/22 00:24:08;;;;;;;;;;;21.30;86.00;21.30;99400.00;;;;330799;29;94805;-95
2022/08/22 00:24:40;;;;;;;;;;;21.30;86.00;21.30;99398.00;;;;330257;29;82627;-95
2022/08/22 00:25:11;;;;;;;;;;;21.30;86.30;21.30;99399.00;;;;331784;29;97437;-95
2022/08/22 00:25:55;;;;;;;;;;;21.30;86.40;21.20;99404.00;;;;333912;29;82754;-95
2022/08/22 00:26:36;;;;;;;;;;;21.20;86.40;21.30;99392.00;;;;334147;28;95991;-94
2022/08/22 00:26:52;;;;;;;;;;;21.20;86.40;21.40;99388.00;;;;333929;29;82565;-95
2022/08/22 00:27:27;;;;;;;;;;;21.20;86.70;21.40;99390.00;;;;335564;28;96049;-96
2022/08/22 00:27:47;;;;;;;;;;;21.30;86.70;21.40;99395.00;;;;333914;28;83360;-95
2022/08/22 00:28:03;;;;;;;;;;;21.30;86.60;21.30;99389.00;;;;334314;29;95597;-95
2022/08/22 00:28:21;;;;;;;;;;;21.30;86.60;21.30;99392.00;;;;336673;28;83226;-95
2022/08/22 00:28:37;;;;;;;;;;;21.30;86.70;21.30;99386.00;;;;333221;29;96269;-94
2022/08/22 00:28:56;;;;;;;;;;;21.20;86.60;21.30;99400.00;;;;333979;29;82469;-95
2022/08/22 00:29:11;;;;;;;;;;;21.20;86.70;21.30;99389.00;;;;333231;29;96023;-95
2022/08/22 00:29:26;;;;;;;;;;;21.30;86.70;21.30;99392.00;;;;333977;29;82582;-95
2022/08/22 00:29:43;;;;;;;;;;;21.20;86.70;21.30;99392.00;;;;334623;29;96522;-95
2022/08/22 00:30:11;;;;;;;;;;;21.20;86.60;21.40;99398.00;;;;335101;29;82304;-95
2022/08/22 00:30:22;;;;;;;;;;;21.20;87.00;21.30;99396.00;;;;335812;28;95467;-94
2022/08/22 00:30:42;;;;;;;;;;;21.20;86.90;21.30;99393.00;;;;335321;29;83303;-95
2022/08/22 00:31:14;;;;;;;;;;;21.20;86.80;21.30;99389.00;;;;331820;29;95291;-95
2022/08/22 00:31:31;;;;;;;;;;;21.30;87.10;21.30;99386.00;;;;335246;29;83394;-95
2022/08/22 00:31:46;;;;;;;;;;;21.30;86.80;21.30;99379.00;;;;333243;29;96146;-95
2022/08/22 00:32:23;;;;;;;;;;;21.30;86.80;21.30;99391.00;;;;333969;29;82386;-95
2022/08/22 00:32:56;;;;;;;;;;;21.20;86.70;21.30;99387.00;;;;334357;29;97316;-95
2022/08/22 00:33:19;;;;;;;;;;;21.20;87.00;21.30;99385.00;;;;332793;29;82421;-94
2022/08/22 00:33:40;;;;;;;;;;;21.20;87.10;21.30;99392.00;;;;333301;29;95212;-95
2022/08/22 00:34:04;;;;;;;;;;;21.20;87.20;21.30;99389.00;;;;336622;28;82584;-95
2022/08/22 00:35:01;;;;;;;;;;;21.20;87.30;21.40;99388.00;;;;335353;28;94160;-95
2022/08/22 00:35:23;;;;;;;;;;;21.20;87.20;21.40;99391.00;;;;332441;29;83405;-95
2022/08/22 00:35:36;;;;;;;;;;;21.30;87.50;21.30;99389.00;;;;330454;29;95239;-95
2022/08/22 00:36:12;;;;;;;;;;;21.30;87.50;21.40;99393.00;;;;335025;29;83573;-95
2022/08/22 00:36:27;;;;;;;;;;;21.30;87.50;21.40;99385.00;;;;334878;28;95218;-94
2022/08/22 00:36:58;;;;;;;;;;;21.30;87.40;21.40;99384.00;;;;336584;28;82498;-95
2022/08/22 00:37:29;;;;;;;;;;;21.30;87.50;21.40;99387.00;;;;335646;28;97935;-95
2022/08/22 00:37:45;;;;;;;;;;;21.30;87.40;21.40;99381.00;;;;333037;29;82565;-94
2022/08/22 00:38:18;;;;;;;;;;;21.30;87.40;21.40;99387.00;;;;333038;29;95909;-95
2022/08/22 00:38:37;;;;;;;;;;;21.30;87.40;21.40;99380.00;;;;335336;29;82437;-95
2022/08/22 00:38:55;;;;;;;;;;;21.30;87.30;21.40;99384.00;;;;331548;29;95761;-94
2022/08/22 00:39:24;;;;;;;;;;;21.30;87.60;21.40;99383.00;;;;335233;29;83460;-95
2022/08/22 00:40:00;;;;;;;;;;;21.30;87.60;21.40;99385.00;;;;334389;29;94139;-95
2022/08/22 00:40:16;;;;;;;;;;;21.30;87.60;21.40;99378.00;;;;333892;29;83523;-95
2022/08/22 00:40:48;;;;;;;;;;;21.30;87.70;21.30;99385.00;;;;333297;29;95494;-94
2022/08/22 00:41:05;;;;;;;;;;;21.30;87.60;21.30;99379.00;;;;335206;29;82385;-95
2022/08/22 00:41:47;;;;;;;;;;;21.30;87.70;21.20;99378.00;;;;335642;28;96346;-95
2022/08/22 00:42:33;;;;;;;;;;;21.30;87.70;21.20;99383.00;;;;336423;28;82603;-95
2022/08/22 00:43:29;;;;;;;;;;;21.30;87.80;21.30;99385.00;;;;333177;29;97227;-94
2022/08/22 00:43:53;;;;;;;;;;;21.30;88.10;21.30;99388.00;;;;332580;29;83399;-95
2022/08/22 00:44:29;;;;;;;;;;;21.30;88.10;21.30;99384.00;;;;331996;29;96541;-95
2022/08/22 00:45:04;;;;;;;;;;;21.30;88.30;21.30;99380.00;;;;332571;29;82524;-95
2022/08/22 00:45:29;;;;;;;;;;;21.20;88.20;21.40;99390.00;;;;331984;29;95780;-95
2022/08/22 00:45:47;;;;;;;;;;;21.20;88.30;21.30;99383.00;;;;331494;29;82383;-95
2022/08/22 00:46:19;;;;;;;;;;;21.30;88.40;21.20;99392.00;;;;331305;29;96702;-95
2022/08/22 00:46:54;;;;;;;;;;;21.20;88.30;21.20;99388.00;;;;330313;29;83500;-95
2022/08/22 00:47:37;;;;;;;;;;;21.20;88.30;21.30;99380.00;;;;331973;29;96696;-95
2022/08/22 00:47:55;;;;;;;;;;;21.20;88.80;21.30;99384.00;;;;332746;29;83453;-95
2022/08/22 00:48:20;;;;;;;;;;;21.20;88.70;21.30;99389.00;;;;331882;29;96250;-94
2022/08/22 00:48:34;;;;;;;;;;;21.20;88.80;21.30;99376.00;;;;331225;29;83474;-94
2022/08/22 00:49:17;;;;;;;;;;;21.20;88.70;21.30;99378.00;;;;331520;29;95431;-95
2022/08/22 00:49:49;;;;;;;;;;;21.20;88.60;21.30;99370.00;;;;330241;29;83372;-94
2022/08/22 00:50:38;;;;;;;;;;;21.20;89.00;21.20;99386.00;;;;331806;29;96663;-95
2022/08/22 00:51:09;;;;;;;;;;;21.20;89.00;21.30;99382.00;;;;332728;29;83388;-94
2022/08/22 00:52:01;;;;;;;;;;;21.20;89.10;21.20;99385.00;;;;330502;29;96050;-95
2022/08/22 00:52:38;;;;;;;;;;;21.20;89.00;21.30;99372.00;;;;330196;29;82625;-95
2022/08/22 00:53:09;;;;;;;;;;;21.20;89.00;21.30;99381.00;;;;328047;29;95839;-95
2022/08/22 00:54:01;;;;;;;;;;;21.20;89.30;21.40;99375.00;;;;328922;29;82842;-95
2022/08/22 00:54:22;;;;;;;;;;;21.20;89.50;21.20;99379.00;;;;327810;29;95685;-95
2022/08/22 00:54:44;;;;;;;;;;;21.20;89.60;21.30;99382.00;;;;326382;29;83453;-95
2022/08/22 00:55:10;;;;;;;;;;;21.20;89.60;21.30;99384.00;;;;327110;29;96493;-95
2022/08/22 00:56:02;;;;;;;;;;;21.20;89.60;21.30;99377.00;;;;326300;29;82514;-95
2022/08/22 00:56:44;;;;;;;;;;;21.20;89.80;21.30;99379.00;;;;326926;29;94801;-94
2022/08/22 00:57:36;;;;;;;;;;;21.20;89.80;21.30;99379.00;;;;325218;29;83500;-95
2022/08/22 00:57:58;;;;;;;;;;;21.30;90.00;21.30;99385.00;;;;324232;29;93356;-95
2022/08/22 00:58:13;;;;;;;;;;;21.20;90.00;21.30;99379.00;;;;325248;29;83352;-95
2022/08/22 00:58:43;;;;;;;;;;;21.20;90.00;21.20;99379.00;;;;323398;30;95590;-95
2022/08/22 00:59:23;;;;;;;;;;;21.20;90.00;21.20;99373.00;;;;325253;29;83557;-94
2022/08/22 00:59:33;;;;;;;;;;;21.20;90.10;21.20;99372.00;;;;323563;30;94971;-95
2022/08/22 00:59:47;;;;;;;;;;;21.20;90.10;21.20;99374.00;;;;325389;30;83515;-94
2022/08/22 01:00:14;;;;;;;;;;;21.20;90.20;21.20;99373.00;;;;322164;29;95276;-95
2022/08/22 01:00:26;;;;;;;;;;;21.20;90.30;21.30;99377.00;;;;327904;29;82530;-95
2022/08/22 01:00:42;;;;;;;;;;;21.20;90.20;21.30;99375.00;;;;324510;30;95485;-95
2022/08/22 01:00:55;;;;;;;;;;;21.20;90.20;21.20;99372.00;;;;327815;29;83533;-95
2022/08/22 01:01:08;;;;;;;;;;;21.20;90.30;21.30;99375.00;;;;325895;29;95666;-94
2022/08/22 01:01:25;;;;;;;;;;;21.20;90.20;21.30;99377.00;;;;326645;29;82600;-95
2022/08/22 01:01:37;;;;;;;;;;;21.20;90.30;21.30;99376.00;;;;324664;29;96628;-95
2022/08/22 01:02:26;;;;;;;;;;;21.20;90.30;21.10;99383.00;;;;326922;29;83550;-95
2022/08/22 01:03:14;;;;;;;;;;;21.20;90.30;21.10;99380.00;;;;327012;29;96132;-94
2022/08/22 01:03:43;;;;;;;;;;;21.20;90.40;21.20;99376.00;;;;326689;29;82437;-94
2022/08/22 01:04:22;;;;;;;;;;;21.10;90.40;21.20;99382.00;;;;328175;29;95958;-95
2022/08/22 01:04:52;;;;;;;;;;;21.10;90.40;21.10;99379.00;;;;326504;29;83480;-95
2022/08/22 01:05:18;;;;;;;;;;;21.10;90.50;21.10;99372.00;;;;324528;29;96307;-95
2022/08/22 01:05:39;;;;;;;;;;;21.10;90.50;21.10;99375.00;;;;326379;29;82681;-94
2022/08/22 01:06:16;;;;;;;;;;;21.10;90.50;21.20;99382.00;;;;328287;29;94606;-95
2022/08/22 01:07:03;;;;;;;;;;;21.10;90.50;21.10;99376.00;;;;326470;29;82512;-94
2022/08/22 01:07:39;;;;;;;;;;;21.10;90.60;21.20;99382.00;;;;324431;30;97032;-95
2022/08/22 01:08:14;;;;;;;;;;;21.10;90.70;21.20;99377.00;;;;350897;27;75144;-95
2022/08/22 01:09:00;;;;;;;;;;;21.10;90.60;21.10;99375.00;;;;347136;28;83485;-95
2022/08/22 01:09:41;;;;;;;;;;;21.10;90.70;21.20;99369.00;;;;345894;28;83161;-95
2022/08/22 01:10:13;;;;;;;;;;;21.20;90.80;21.30;99366.00;;;;342993;28;83460;-95
2022/08/22 01:11:10;;;;;;;;;;;21.10;90.70;21.20;99372.00;;;;341706;28;87288;-95
2022/08/22 01:11:33;;;;;;;;;;;21.20;90.60;21.30;99365.00;;;;344480;28;83420;-94
2022/08/22 01:12:04;;;;;;;;;;;21.10;90.60;21.30;99363.00;;;;344462;28;86170;-94
2022/08/22 01:12:38;;;;;;;;;;;21.10;90.70;21.30;99363.00;;;;342991;28;82384;-95
2022/08/22 01:13:27;;;;;;;;;;;21.20;90.80;21.20;99366.00;;;;342981;28;87586;-95
2022/08/22 01:14:07;;;;;;;;;;;21.20;90.90;21.20;99366.00;;;;344606;28;83419;-95
2022/08/22 01:14:39;;;;;;;;;;;21.20;90.90;21.00;99377.00;;;;344451;28;85393;-94
2022/08/22 01:15:19;;;;;;;;;;;21.10;90.90;21.00;99377.00;;;;343894;28;83462;-95
2022/08/22 01:15:32;;;;;;;;;;;21.10;91.00;21.10;99366.00;;;;339789;28;86209;-95
2022/08/22 01:15:44;;;;;;;;;;;21.10;91.10;21.00;99365.00;;;;345719;28;83404;-95
2022/08/22 01:16:24;;;;;;;;;;;21.10;91.20;21.10;99370.00;;;;342909;28;84462;-95
2022/08/22 01:16:59;;;;;;;;;;;21.00;91.20;21.20;99377.00;;;;341158;28;82484;-95
2022/08/22 01:17:21;;;;;;;;;;;21.10;91.20;21.20;99370.00;;;;338951;28;87281;-96
2022/08/22 01:18:09;;;;;;;;;;;21.10;91.20;21.10;99380.00;;;;338648;28;83409;-95
2022/08/22 01:18:43;;;;;;;;;;;21.10;91.30;21.20;99382.00;;;;339043;28;87118;-95
2022/08/22 01:19:36;;;;;;;;;;;21.10;91.20;21.20;99371.00;;;;341291;28;82521;-96
2022/08/22 01:20:27;;;;;;;;;;;21.10;91.40;21.10;99379.00;;;;337487;28;85192;-95
2022/08/22 01:21:13;;;;;;;;;;;21.10;91.40;21.20;99385.00;;;;334838;29;82690;-95
2022/08/22 01:21:53;;;;;;;;;;;21.10;91.40;21.30;99374.00;;;;336332;28;87131;-96
2022/08/22 01:22:38;;;;;;;;;;;21.10;91.40;21.20;99383.00;;;;335750;29;83400;-95
2022/08/22 01:23:07;;;;;;;;;;;21.10;91.40;21.10;99374.00;;;;337599;28;87672;-95
2022/08/22 01:23:56;;;;;;;;;;;21.10;91.50;21.10;99368.00;;;;340362;28;82432;-94
2022/08/22 01:24:26;;;;;;;;;;;21.10;91.50;21.10;99373.00;;;;337531;28;87543;-95
2022/08/22 01:25:19;;;;;;;;;;;21.10;91.50;21.20;99381.00;;;;338919;28;82556;-95
2022/08/22 01:26:16;;;;;;;;;;;21.10;91.60;21.10;99375.00;;;;337638;28;86632;-94
2022/08/22 01:26:54;;;;;;;;;;;21.10;91.70;21.20;99375.00;;;;335617;28;83665;-95
2022/08/22 01:27:34;;;;;;;;;;;21.10;91.70;21.20;99376.00;;;;335013;29;87270;-94
2022/08/22 01:27:49;;;;;;;;;;;21.10;91.70;21.20;99374.00;;;;333520;29;83345;-94
2022/08/22 01:28:37;;;;;;;;;;;21.10;91.80;21.20;99372.00;;;;335008;29;86133;-94
2022/08/22 01:29:27;;;;;;;;;;;21.10;91.70;21.20;99367.00;;;;333605;29;83556;-94
2022/08/22 01:29:55;;;;;;;;;;;21.10;91.80;21.10;99365.00;;;;333378;29;85976;-94
2022/08/22 01:30:23;;;;;;;;;;;21.10;92.00;21.10;99371.00;;;;330948;29;83396;-95
2022/08/22 01:30:43;;;;;;;;;;;21.10;91.90;21.10;99369.00;;;;332456;29;85970;-95
2022/08/22 01:31:16;;;;;;;;;;;21.10;92.00;21.10;99368.00;;;;333736;29;83617;-94
2022/08/22 01:31:46;;;;;;;;;;;21.10;92.00;21.10;99367.00;;;;331262;29;85955;-95
2022/08/22 01:32:35;;;;;;;;;;;21.10;92.00;21.20;99363.00;;;;332533;29;83340;-94
2022/08/22 01:33:08;;;;;;;;;;;21.10;92.00;21.20;99363.00;;;;331311;29;87253;-94
2022/08/22 01:33:34;;;;;;;;;;;21.10;92.10;21.20;99366.00;;;;331882;29;82500;-95
2022/08/22 01:33:55;;;;;;;;;;;21.10;92.00;21.20;99359.00;;;;334785;29;87383;-93
2022/08/22 01:34:53;;;;;;;;;;;21.10;92.00;21.20;99356.00;;;;334340;29;82530;-95
2022/08/22 01:35:33;;;;;;;;;;;21.10;92.00;21.20;99364.00;;;;333188;29;83823;-94
2022/08/22 01:36:02;;;;;;;;;;;21.20;92.00;21.20;99349.00;;;;330302;29;82447;-95
2022/08/22 01:36:55;;;;;;;;;;;21.20;91.90;21.20;99347.00;;;;328617;29;84158;-93
2022/08/22 01:37:31;;;;;;;;;;;21.20;92.00;21.10;99352.00;;;;328962;29;83478;-95
2022/08/22 01:38:17;;;;;;;;;;;21.10;92.10;21.10;99355.00;;;;351117;27;75378;-94
2022/08/22 01:38:59;;;;;;;;;;;21.10;92.20;21.10;99352.00;;;;350196;27;82387;-95
2022/08/22 01:40:00;;;;;;;;;;;21.10;92.20;21.20;99355.00;;;;348083;27;88193;-93
2022/08/22 01:40:47;;;;;;;;;;;21.10;92.20;21.20;99355.00;;;;347336;28;82179;-95
2022/08/22 01:41:12;;;;;;;;;;;21.10;92.30;21.10;99355.00;;;;346772;27;86020;-96
2022/08/22 01:41:36;;;;;;;;;;;21.10;92.30;21.10;99344.00;;;;345469;28;82395;-95
2022/08/22 01:42:07;;;;;;;;;;;21.10;92.40;21.10;99346.00;;;;345859;28;86028;-95
2022/08/22 01:42:42;;;;;;;;;;;21.10;92.40;21.10;99347.00;;;;345070;28;83835;-95
2022/08/22 01:43:00;;;;;;;;;;;21.10;92.50;21.20;99352.00;;;;343020;28;85820;-94
2022/08/22 01:43:50;;;;;;;;;;;21.10;92.50;21.10;99353.00;;;;341545;28;83296;-95
2022/08/22 01:44:29;;;;;;;;;;;21.10;92.50;21.10;99356.00;;;;337678;28;87185;-94
2022/08/22 01:44:59;;;;;;;;;;;21.10;92.50;21.20;99347.00;;;;337702;28;83683;-93
2022/08/22 01:45:37;;;;;;;;;;;21.10;92.50;21.10;99352.00;;;;342036;28;86828;-95
2022/08/22 01:46:09;;;;;;;;;;;21.10;92.50;21.20;99352.00;;;;340416;28;83337;-94
2022/08/22 01:46:45;;;;;;;;;;;21.10;92.60;21.20;99354.00;;;;341528;28;87408;-95
2022/08/22 01:47:01;;;;;;;;;;;21.20;92.60;21.00;99352.00;;;;340359;28;83352;-95
2022/08/22 01:47:16;;;;;;;;;;;21.10;92.80;21.00;99342.00;;;;337030;28;85455;-95
2022/08/22 01:47:42;;;;;;;;;;;21.10;92.80;21.00;99340.00;;;;338055;28;83362;-95
2022/08/22 01:48:03;;;;;;;;;;;21.10;92.80;21.10;99344.00;;;;340254;28;86179;-95
2022/08/22 01:48:42;;;;;;;;;;;21.10;92.80;21.00;99343.00;;;;340302;28;83237;-95
2022/08/22 01:49:14;;;;;;;;;;;21.10;92.90;21.00;99346.00;;;;338871;28;85790;-95
2022/08/22 01:49:32;;;;;;;;;;;21.00;92.90;21.00;99347.00;;;;337630;28;83349;-95
2022/08/22 01:50:17;;;;;;;;;;;21.00;92.80;21.10;99355.00;;;;337640;28;87345;-95
2022/08/22 01:50:32;;;;;;;;;;;21.00;92.80;21.00;99344.00;;;;340436;28;83441;-94
2022/08/22 01:50:52;;;;;;;;;;;21.00;93.00;21.00;99350.00;;;;339082;28;86370;-95
2022/08/22 01:51:27;;;;;;;;;;;21.00;93.00;21.00;99346.00;;;;339053;28;82348;-96
2022/08/22 01:51:54;;;;;;;;;;;21.00;93.10;21.00;99350.00;;;;340319;28;87127;-95
2022/08/22 01:52:19;;;;;;;;;;;21.00;93.10;21.00;99352.00;;;;340338;28;83379;-95
2022/08/22 01:53:13;;;;;;;;;;;21.00;93.20;21.10;99348.00;;;;338965;28;86314;-95
2022/08/22 01:53:49;;;;;;;;;;;21.00;93.20;21.10;99351.00;;;;339055;28;82493;-95
2022/08/22 01:54:06;;;;;;;;;;;21.00;93.10;21.10;99358.00;;;;335896;28;86323;-94
2022/08/22 01:54:36;;;;;;;;;;;21.00;93.10;21.10;99354.00;;;;340133;28;83391;-95
2022/08/22 01:54:50;;;;;;;;;;;21.00;93.10;21.00;99350.00;;;;340058;28;86558;-95
2022/08/22 01:55:23;;;;;;;;;;;21.00;93.20;21.00;99349.00;;;;341568;28;82553;-95
2022/08/22 01:56:01;;;;;;;;;;;21.00;93.20;21.00;99351.00;;;;341425;28;85798;-95
2022/08/22 01:56:18;;;;;;;;;;;21.00;93.40;21.00;99355.00;;;;340181;28;83414;-94
2022/08/22 01:56:35;;;;;;;;;;;21.00;93.30;20.90;99362.00;;;;339004;28;87691;-95
2022/08/22 01:56:46;;;;;;;;;;;21.00;93.50;21.00;99349.00;;;;340073;28;83374;-95
2022/08/22 01:57:04;;;;;;;;;;;21.00;93.40;21.10;99366.00;;;;337661;28;87424;-95
2022/08/22 01:57:16;;;;;;;;;;;20.90;93.40;21.10;99355.00;;;;339015;28;82562;-95
2022/08/22 01:57:27;;;;;;;;;;;21.00;93.40;21.10;99349.00;;;;337610;28;87600;-95
2022/08/22 01:58:02;;;;;;;;;;;21.00;93.30;21.00;99365.00;;;;337696;28;82336;-95
2022/08/22 01:58:15;;;;;;;;;;;21.00;93.40;21.00;99359.00;;;;341219;28;86531;-95
2022/08/22 01:58:29;;;;;;;;;;;21.00;93.30;21.00;99353.00;;;;341640;28;83387;-95
2022/08/22 01:58:57;;;;;;;;;;;21.00;93.40;21.00;99361.00;;;;342923;28;87487;-95
2022/08/22 01:59:19;;;;;;;;;;;21.00;93.40;20.90;99358.00;;;;338966;28;83655;-95
2022/08/22 01:59:38;;;;;;;;;;;20.90;93.50;21.00;99356.00;;;;339159;28;86782;-95
2022/08/22 01:59:58;;;;;;;;;;;20.90;93.50;20.90;99357.00;;;;338939;28;83625;-94
2022/08/22 02:00:16;;;;;;;;;;;20.90;93.60;20.90;99356.00;;;;338933;28;85593;-95
2022/08/22 02:00:32;;;;;;;;;;;20.90;93.60;21.00;99355.00;;;;341728;28;83387;-95
2022/08/22 02:00:55;;;;;;;;;;;20.90;93.60;21.00;99355.00;;;;340050;28;87950;-95
2022/08/22 02:01:13;;;;;;;;;;;20.90;93.50;21.10;99355.00;;;;337714;28;83411;-95
2022/08/22 02:01:39;;;;;;;;;;;20.90;93.50;21.00;99358.00;;;;339039;28;86373;-95
2022/08/22 02:01:55;;;;;;;;;;;20.90;93.50;20.90;99356.00;;;;338812;28;83520;-95
2022/08/22 02:02:29;;;;;;;;;;;21.00;93.80;20.90;99357.00;;;;339096;28;84842;-95
2022/08/22 02:03:21;;;;;;;;;;;20.90;93.70;20.90;99357.00;;;;341762;28;83582;-95
2022/08/22 02:03:50;;;;;;;;;;;20.90;93.80;20.90;99354.00;;;;338999;28;86453;-94
2022/08/22 02:04:04;;;;;;;;;;;20.90;93.90;20.90;99359.00;;;;340237;28;83540;-95
2022/08/22 02:04:26;;;;;;;;;;;20.90;93.80;20.90;99365.00;;;;341399;28;84788;-94
2022/08/22 02:04:41;;;;;;;;;;;20.90;93.90;20.90;99361.00;;;;338324;28;83304;-95
2022/08/22 02:04:59;;;;;;;;;;;20.90;93.90;20.90;99362.00;;;;340265;28;85850;-95
2022/08/22 02:05:30;;;;;;;;;;;20.90;93.90;20.80;99365.00;;;;337128;28;83300;-96
2022/08/22 02:06:15;;;;;;;;;;;20.90;94.00;20.80;99355.00;;;;339034;28;86829;-95
2022/08/22 02:06:46;;;;;;;;;;;20.90;93.90;20.90;99359.00;;;;335318;28;82588;-95
2022/08/22 02:07:40;;;;;;;;;;;20.90;94.00;20.80;99357.00;;;;337704;28;87074;-94
2022/08/22 02:08:21;;;;;;;;;;;20.90;94.10;20.90;99359.00;;;;336266;28;83266;-95
2022/08/22 02:08:47;;;;;;;;;;;20.80;94.10;20.80;99354.00;;;;337748;28;85361;-95
2022/08/22 02:09:04;;;;;;;;;;;20.80;94.10;20.90;99353.00;;;;336376;28;83609;-95
2022/08/22 02:09:39;;;;;;;;;;;20.80;94.10;20.90;99353.00;;;;336339;28;85188;-96
2022/08/22 02:10:14;;;;;;;;;;;20.80;94.10;20.90;99359.00;;;;333797;29;82602;-95
2022/08/22 02:10:56;;;;;;;;;;;20.80;94.20;20.90;99358.00;;;;337766;28;86852;-95
2022/08/22 02:11:11;;;;;;;;;;;20.80;94.20;20.90;99359.00;;;;338027;28;82472;-94
2022/08/22 02:11:42;;;;;;;;;;;20.80;94.10;20.80;99362.00;;;;336363;28;86966;-95
2022/08/22 02:12:10;;;;;;;;;;;20.80;94.10;20.80;99359.00;;;;339113;28;83355;-95
2022/08/22 02:12:35;;;;;;;;;;;20.80;94.20;20.80;99354.00;;;;337849;28;85431;-95
2022/08/22 02:13:11;;;;;;;;;;;20.80;94.20;20.90;99351.00;;;;336476;28;82360;-95
2022/08/22 02:13:58;;;;;;;;;;;20.80;94.30;20.80;99356.00;;;;337754;28;84255;-96
2022/08/22 02:14:31;;;;;;;;;;;20.80;94.60;20.80;99356.00;;;;337457;28;82676;-95
2022/08/22 02:15:04;;;;;;;;;;;20.80;94.70;20.80;99358.00;;;;353811;27;74859;-95
2022/08/22 02:15:41;;;;;;;;;;;20.80;94.40;20.80;99350.00;;;;352230;27;82642;-95
2022/08/22 02:16:08;;;;;;;;;;;20.70;94.50;20.90;99355.00;;;;347055;28;86348;-95
2022/08/22 02:16:31;;;;;;;;;;;20.80;94.50;20.90;99348.00;;;;347018;28;83572;-94
2022/08/22 02:16:45;;;;;;;;;;;20.80;94.50;20.80;99353.00;;;;346922;27;85940;-95
2022/08/22 02:17:24;;;;;;;;;;;20.80;94.40;20.90;99358.00;;;;348104;27;83529;-95
2022/08/22 02:17:58;;;;;;;;;;;20.80;94.40;20.90;99346.00;;;;348387;27;87454;-95
2022/08/22 02:18:26;;;;;;;;;;;20.80;94.40;20.90;99352.00;;;;350035;27;83388;-95
2022/08/22 02:18:52;;;;;;;;;;;20.80;94.30;20.90;99348.00;;;;349544;27;85942;-94
2022/08/22 02:19:13;;;;;;;;;;;20.80;94.40;20.90;99348.00;;;;347265;27;82457;-95
2022/08/22 02:19:30;;;;;;;;;;;20.80;94.40;20.90;99348.00;;;;347041;27;86867;-95
2022/08/22 02:20:18;;;;;;;;;;;20.80;94.40;20.90;99354.00;;;;348552;27;83253;-96
2022/08/22 02:20:32;;;;;;;;;;;20.80;94.70;20.90;99352.00;;;;342996;28;86945;-95
2022/08/22 02:20:47;;;;;;;;;;;20.80;94.40;20.90;99350.00;;;;341570;28;82619;-95
2022/08/22 02:21:14;;;;;;;;;;;20.80;94.50;20.90;99338.00;;;;343063;28;87623;-95
2022/08/22 02:21:43;;;;;;;;;;;20.80;94.50;21.00;99347.00;;;;338701;28;83475;-95
2022/08/22 02:22:16;;;;;;;;;;;20.80;94.40;21.00;99344.00;;;;338891;28;85982;-94
2022/08/22 02:23:07;;;;;;;;;;;20.80;94.30;20.80;99358.00;;;;340453;28;82284;-95
2022/08/22 02:23:29;;;;;;;;;;;20.90;94.50;20.80;99346.00;;;;339258;28;85304;-95
2022/08/22 02:23:51;;;;;;;;;;;20.80;94.50;20.90;99342.00;;;;342927;28;83437;-96
2022/08/22 02:24:25;;;;;;;;;;;20.80;94.50;20.80;99352.00;;;;341619;28;87353;-95
2022/08/22 02:24:45;;;;;;;;;;;20.80;94.50;20.80;99344.00;;;;340264;28;83472;-95
2022/08/22 02:25:14;;;;;;;;;;;20.80;94.50;20.80;99345.00;;;;340129;28;86177;-95
2022/08/22 02:25:31;;;;;;;;;;;20.80;94.60;20.90;99343.00;;;;341563;28;82468;-95
2022/08/22 02:26:07;;;;;;;;;;;20.80;94.50;20.80;99346.00;;;;343058;28;86429;-95